Terminal Aerodrome Forecast
Issued by NWS

Home | Current Version | Previous Version | Text Only | Print | Product List | Glossary On
Versions: 1 2 3 4 5 6 7 8 9 10 11 12 13 14 15 16 17 18 19 20 21 22 23 24 25 26 27
000
FTUS44 KMAF 251700
TAFFST
TAF
KFST 251739Z 2518/2618 21018G28KT P6SM BKN200
     FM260100 16017G23KT P6SM SCT150 BKN200
     FM260900 19012KT P6SM BKN120
     FM261600 22015G25KT P6SM BKN120=

USA.gov is the U.S. government's official web portal to all federal, state and local government web resources and services.